Time;durP1;ratioP1;P1;durP2;ratioP2;P2;SDS_P1;SDS_P2;PMS_P1;PMS_P2;Temp;Humidity;BMP_temperature;BMP_pressure;BME280_temperature;BME280_humidity;BME280_pressure;Samples;Min_cycle;Max_cycle;Signal;HPM_P1;HPM_P2
2022/07/30 00:01:20;;;;;;;4.83;3.12;;;;;;;13.63;100.00;101135.29;1719389;82;20981;-42
2022/07/30 00:03:48;;;;;;;7.55;3.50;;;;;;;13.63;100.00;101130.55;1699045;82;21692;-41
2022/07/30 00:06:16;;;;;;;5.30;3.52;;;;;;;13.62;100.00;101126.23;1720722;81;21011;-42
2022/07/30 00:08:42;;;;;;;5.08;3.50;;;;;;;13.63;100.00;101126.64;1719298;82;20980;-42
2022/07/30 00:11:10;;;;;;;6.92;3.00;;;;;;;13.60;100.00;101128.02;1719295;82;21517;-41
2022/07/30 00:13:39;;;;;;;10.55;3.75;;;;;;;13.57;100.00;101122.88;1719546;82;21451;-41
2022/07/30 00:16:07;;;;;;;7.53;3.12;;;;;;;13.56;100.00;101119.41;1692244;82;21510;-42
2022/07/30 00:18:35;;;;;;;3.77;3.40;;;;;;;13.55;100.00;101125.95;1720201;82;20993;-42
2022/07/30 00:21:03;;;;;;;7.33;3.83;;;;;;;13.52;100.00;101128.63;1721993;82;20984;-41
2022/07/30 00:23:31;;;;;;;10.38;4.17;;;;;;;13.52;100.00;101121.66;1719669;82;20952;-42
2022/07/30 00:26:02;;;;;;;5.72;3.65;;;;;;;13.52;100.00;101119.05;1717354;82;20987;-42
2022/07/30 00:28:29;;;;;;;8.73;3.47;;;;;;;13.52;100.00;101123.42;1721258;82;20953;-42
2022/07/30 00:30:56;;;;;;;9.78;3.42;;;;;;;13.48;100.00;101117.41;1722412;82;20937;-42
2022/07/30 00:33:24;;;;;;;3.72;3.37;;;;;;;13.44;100.00;101120.50;1718892;81;20964;-42
2022/07/30 00:35:53;;;;;;;8.53;3.47;;;;;;;13.42;100.00;101118.34;1720942;81;20972;-42
2022/07/30 00:38:20;;;;;;;4.83;3.72;;;;;;;13.41;100.00;101120.53;1721472;81;21506;-42
2022/07/30 00:40:47;;;;;;;10.78;4.05;;;;;;;13.37;100.00;101114.98;1725973;82;20980;-42
2022/07/30 00:43:16;;;;;;;3.87;3.40;;;;;;;13.34;100.00;101109.85;1728575;82;20968;-42
2022/07/30 00:45:43;;;;;;;9.00;3.70;;;;;;;13.33;100.00;101118.08;1729854;82;20963;-42
2022/07/30 00:48:12;;;;;;;8.65;3.58;;;;;;;13.34;100.00;101117.19;1719337;82;21211;-42
2022/07/30 00:50:40;;;;;;;9.38;4.10;;;;;;;13.35;100.00;101123.27;1726219;82;20987;-41
2022/07/30 00:53:10;;;;;;;6.60;3.98;;;;;;;13.38;100.00;101115.40;1727111;82;21015;-42
2022/07/30 00:55:38;;;;;;;7.75;4.12;;;;;;;13.42;100.00;101122.25;1727836;82;20975;-42
2022/07/30 00:58:07;;;;;;;8.75;3.75;;;;;;;13.47;100.00;101121.73;1701448;82;21011;-42
2022/07/30 01:00:35;;;;;;;4.80;4.12;;;;;;;13.48;100.00;101115.65;1728227;82;20972;-42
2022/07/30 01:03:03;;;;;;;5.67;3.98;;;;;;;13.50;100.00;101116.94;1726988;82;21003;-42
2022/07/30 01:05:31;;;;;;;6.55;4.62;;;;;;;13.50;100.00;101114.33;1727484;82;21517;-42
2022/07/30 01:07:58;;;;;;;6.10;4.12;;;;;;;13.49;100.00;101113.92;1727903;82;21553;-42
2022/07/30 01:10:26;;;;;;;14.47;3.95;;;;;;;13.48;100.00;101114.34;1729084;82;20945;-42
2022/07/30 01:12:53;;;;;;;12.95;4.05;;;;;;;13.48;100.00;101114.81;1727939;82;21696;-42
2022/07/30 01:15:22;;;;;;;5.15;3.80;;;;;;;13.48;100.00;101110.45;1726898;82;20968;-42
2022/07/30 01:17:49;;;;;;;6.97;3.67;;;;;;;13.53;100.00;101109.53;1729636;82;21068;-42
2022/07/30 01:20:25;;;;;;;7.28;4.25;;;;;;;13.53;100.00;101118.63;1728598;82;20956;-42
2022/07/30 01:23:15;;;;;;;5.55;3.77;;;;;;;13.54;100.00;101116.44;1730658;82;20976;-42
2022/07/30 01:25:57;;;;;;;12.60;4.00;;;;;;;13.53;100.00;101112.13;1729359;82;21178;-43
2022/07/30 01:28:36;;;;;;;9.93;3.92;;;;;;;13.49;100.00;101114.76;1729800;82;21254;-43
2022/07/30 01:31:07;;;;;;;6.50;3.62;;;;;;;13.50;100.00;101115.63;1730397;82;21573;-42
2022/07/30 01:33:38;;;;;;;5.40;3.35;;;;;;;13.46;100.00;101111.38;1728030;82;20972;-42
2022/07/30 01:36:06;;;;;;;7.78;4.40;;;;;;;13.41;100.00;101109.30;1727021;82;20955;-41
2022/07/30 01:38:33;;;;;;;5.75;3.40;;;;;;;13.34;100.00;101105.95;1726863;81;21919;-43
2022/07/30 01:41:02;;;;;;;8.00;4.10;;;;;;;13.30;100.00;101105.60;1718178;82;20886;-42
2022/07/30 01:43:31;;;;;;;6.17;3.87;;;;;;;13.24;100.00;101102.67;1719199;82;21065;-41
2022/07/30 01:45:59;;;;;;;4.00;3.35;;;;;;;13.16;100.00;101105.41;1719672;82;20963;-42
2022/07/30 01:48:27;;;;;;;5.10;3.45;;;;;;;13.10;100.00;101100.77;1701477;82;21506;-42
2022/07/30 01:50:57;;;;;;;9.50;4.25;;;;;;;13.03;100.00;101113.88;1717101;82;21008;-42
2022/07/30 01:54:54;;;;;;;11.75;4.17;;;;;;;13.01;100.00;101109.58;1800396;79;22591;-42
2022/07/30 01:57:21;;;;;;;4.15;3.72;;;;;;;12.93;100.00;101113.19;1757690;81;20973;-42
2022/07/30 01:59:51;;;;;;;8.38;3.80;;;;;;;12.90;100.00;101114.55;1725125;81;22165;-42
2022/07/30 02:02:18;;;;;;;9.75;4.20;;;;;;;12.85;100.00;101113.77;1764167;80;21202;-43
2022/07/30 02:04:45;;;;;;;11.35;4.00;;;;;;;12.81;100.00;101117.31;1763971;80;21019;-42
2022/07/30 02:07:19;;;;;;;10.00;3.80;;;;;;;12.80;100.00;101113.00;1757330;81;21041;-43
2022/07/30 02:09:57;;;;;;;7.78;3.92;;;;;;;12.82;100.00;101107.77;1719292;83;20943;-43
2022/07/30 02:12:28;;;;;;;6.40;3.95;;;;;;;12.79;100.00;101104.80;1718495;83;20959;-42
2022/07/30 02:15:27;;;;;;;5.05;3.70;;;;;;;12.76;100.00;101102.25;1680223;83;21107;-43
2022/07/30 02:18:31;;;;;;;8.43;3.77;;;;;;;12.73;100.00;101102.27;1666391;84;20968;-41
2022/07/30 02:21:06;;;;;;;4.05;3.72;;;;;;;12.70;100.00;101104.93;1702664;82;21038;-43
2022/07/30 02:23:37;;;;;;;3.80;3.50;;;;;;;12.63;100.00;101099.84;1702291;83;20991;-41
2022/07/30 02:26:04;;;;;;;5.72;4.37;;;;;;;12.60;100.00;101096.43;1695406;84;21139;-42
2022/07/30 02:28:36;;;;;;;6.03;3.65;;;;;;;12.57;100.00;101099.95;1693309;84;21019;-42
2022/07/30 02:31:03;;;;;;;8.45;4.60;;;;;;;12.55;100.00;101094.36;1678024;83;20991;-42
2022/07/30 02:33:35;;;;;;;5.58;4.47;;;;;;;12.54;100.00;101096.11;1692799;84;21509;-42
2022/07/30 02:36:03;;;;;;;4.90;4.33;;;;;;;12.55;100.00;101097.83;1665304;84;21030;-43
2022/07/30 02:38:31;;;;;;;7.95;4.28;;;;;;;12.55;100.00;101098.25;1695219;83;22110;-43
2022/07/30 02:40:59;;;;;;;11.28;4.20;;;;;;;12.54;100.00;101098.71;1693376;84;21054;-43
2022/07/30 02:43:28;;;;;;;10.05;5.05;;;;;;;12.54;100.00;101094.81;1676413;83;20951;-43
2022/07/30 02:45:57;;;;;;;13.28;4.62;;;;;;;12.57;100.00;101095.19;1694072;84;20975;-42
2022/07/30 02:48:26;;;;;;;5.50;4.47;;;;;;;12.58;100.00;101096.48;1695458;84;21572;-43
2022/07/30 02:50:55;;;;;;;10.70;5.58;;;;;;;12.60;100.00;101095.13;1693438;84;21026;-43
2022/07/30 02:53:22;;;;;;;11.63;6.08;;;;;;;12.63;100.00;101090.75;1664083;84;20980;-43
2022/07/30 02:55:49;;;;;;;11.60;5.40;;;;;;;12.68;100.00;101093.28;1688684;83;21498;-43
2022/07/30 02:58:19;;;;;;;10.05;5.95;;;;;;;12.72;100.00;101088.88;1631564;85;20968;-43
2022/07/30 03:00:49;;;;;;;7.00;4.97;;;;;;;12.76;100.00;101095.30;1664315;85;21038;-43
2022/07/30 03:03:18;;;;;;;8.60;5.70;;;;;;;12.79;100.00;101095.70;1661144;85;21006;-43
2022/07/30 03:05:49;;;;;;;9.38;5.62;;;;;;;12.84;100.00;101096.89;1686489;84;21762;-43
2022/07/30 03:08:17;;;;;;;8.08;5.70;;;;;;;12.88;100.00;101095.52;1658711;85;21031;-42
2022/07/30 03:10:44;;;;;;;8.93;5.55;;;;;;;12.95;100.00;101100.17;1680596;84;20992;-42
2022/07/30 03:13:12;;;;;;;6.65;5.20;;;;;;;13.05;100.00;101101.70;1689547;84;22107;-43
2022/07/30 03:15:47;;;;;;;6.92;5.37;;;;;;;13.15;100.00;101102.40;1673140;85;21171;-43
2022/07/30 03:18:17;;;;;;;13.10;5.80;;;;;;;13.27;100.00;101103.06;1690041;84;21002;-42
2022/07/30 03:20:49;;;;;;;9.60;5.10;;;;;;;13.37;100.00;101103.28;1688848;84;21050;-41
2022/07/30 03:23:18;;;;;;;6.03;5.05;;;;;;;13.48;100.00;101109.15;1678837;84;21633;-43
2022/07/30 03:25:57;;;;;;;13.20;4.72;;;;;;;13.60;100.00;101105.44;1686833;84;20998;-43
2022/07/30 03:28:23;;;;;;;11.78;5.25;;;;;;;13.72;100.00;101109.53;1686959;84;21220;-43
2022/07/30 03:30:51;;;;;;;7.37;5.05;;;;;;;13.86;100.00;101107.93;1673587;83;21008;-43
2022/07/30 03:33:19;;;;;;;15.83;4.90;;;;;;;13.98;100.00;101103.36;1687876;84;20984;-43
2022/07/30 03:35:48;;;;;;;8.78;5.10;;;;;;;14.07;100.00;101104.45;1677264;85;21015;-43
2022/07/30 03:38:15;;;;;;;10.82;4.70;;;;;;;14.19;100.00;101107.22;1658763;85;21582;-43
2022/07/30 03:40:44;;;;;;;9.25;4.67;;;;;;;14.29;100.00;101103.52;1686174;84;21181;-43
2022/07/30 03:43:11;;;;;;;6.37;4.20;;;;;;;14.42;100.00;101103.21;1724057;82;21023;-43
2022/07/30 03:45:40;;;;;;;12.80;4.03;;;;;;;14.55;100.00;101106.38;1725126;82;21467;-43
2022/07/30 03:48:08;;;;;;;13.30;3.75;;;;;;;14.65;100.00;101111.75;1727055;82;20976;-43
2022/07/30 03:50:38;;;;;;;9.18;3.98;;;;;;;14.77;100.00;101111.48;1698673;82;20936;-43
2022/07/30 03:53:06;;;;;;;5.97;3.37;;;;;;;14.91;100.00;101117.64;1723690;82;21156;-43
2022/07/30 03:55:36;;;;;;;6.40;3.47;;;;;;;15.09;100.00;101114.16;1720647;82;20956;-43
2022/07/30 03:58:17;;;;;;;11.22;3.08;;;;;;;15.31;100.00;101115.72;1715829;82;20982;-42
2022/07/30 04:00:49;;;;;;;8.43;3.33;;;;;;;15.66;100.00;101115.18;1718311;82;20973;-42
2022/07/30 04:03:27;;;;;;;10.75;2.70;;;;;;;16.05;100.00;101117.10;1720585;82;21012;-43
2022/07/30 04:05:56;;;;;;;5.33;3.27;;;;;;;16.47;100.00;101107.51;1690768;82;21178;-43
2022/07/30 04:08:23;;;;;;;13.43;2.70;;;;;;;16.95;100.00;101105.05;1719289;81;21023;-43
2022/07/30 04:10:50;;;;;;;4.35;2.50;;;;;;;17.38;100.00;101111.84;1718907;82;20953;-44
2022/07/30 04:13:22;;;;;;;5.90;3.00;;;;;;;17.81;100.00;101108.92;1715328;82;21128;-43
2022/07/30 04:16:07;;;;;;;8.33;2.02;;;;;;;18.21;100.00;101110.91;1701340;82;22103;-43
2022/07/30 04:18:37;;;;;;;4.33;2.25;;;;;;;18.56;100.00;101103.35;1721471;81;21255;-44
2022/07/30 04:21:05;;;;;;;3.25;2.25;;;;;;;18.96;100.00;101104.77;1719851;82;20901;-44
2022/07/30 04:23:33;;;;;;;10.82;2.05;;;;;;;19.28;100.00;101104.27;1722133;82;21459;-44
2022/07/30 04:26:00;;;;;;;8.60;2.10;;;;;;;19.61;100.00;101107.14;1700296;82;20905;-44
2022/07/30 04:28:29;;;;;;;9.13;2.35;;;;;;;19.93;100.00;101109.21;1718806;82;21012;-44
2022/07/30 04:30:56;;;;;;;6.42;2.22;;;;;;;20.24;100.00;101111.67;1719088;82;21221;-44
2022/07/30 04:33:23;;;;;;;6.03;1.72;;;;;;;20.52;100.00;101121.69;1719406;81;21814;-43
2022/07/30 04:35:52;;;;;;;10.60;2.33;;;;;;;20.75;100.00;101120.12;1689909;82;21060;-44
2022/07/30 04:38:22;;;;;;;14.38;2.50;;;;;;;21.02;99.16;101119.22;1718736;82;21103;-44
2022/07/30 04:40:50;;;;;;;4.22;2.52;;;;;;;21.20;95.88;101120.02;1720963;82;21003;-44
2022/07/30 04:43:19;;;;;;;14.25;2.95;;;;;;;21.40;93.47;101127.33;1720574;82;20972;-44
2022/07/30 04:45:47;;;;;;;15.55;3.08;;;;;;;21.65;92.28;101128.19;1718786;81;20984;-44
2022/07/30 04:48:13;;;;;;;10.35;4.33;;;;;;;21.96;90.35;101124.33;1721437;82;20985;-44
2022/07/30 04:50:52;;;;;;;14.75;4.28;;;;;;;22.18;85.92;101121.80;1720906;82;20984;-44
2022/07/30 04:53:22;;;;;;;22.25;5.30;;;;;;;22.35;83.83;101124.78;1721418;82;20961;-44
2022/07/30 04:55:56;;;;;;;15.35;3.47;;;;;;;22.48;82.04;101127.14;1704625;82;21259;-44
2022/07/30 04:58:25;;;;;;;16.20;3.00;;;;;;;22.70;80.72;101121.89;1718831;82;20948;-44
2022/07/30 05:00:54;;;;;;;10.58;2.60;;;;;;;22.90;79.72;101132.59;1699349;82;21004;-44
2022/07/30 05:03:23;;;;;;;11.80;2.47;;;;;;;23.13;78.21;101129.50;1721097;82;21004;-44
2022/07/30 05:05:52;;;;;;;3.67;2.00;;;;;;;23.33;77.05;101133.58;1722940;82;20945;-44
2022/07/30 05:08:18;;;;;;;9.10;2.25;;;;;;;23.48;72.44;101131.31;1720365;82;21037;-44
2022/07/30 05:10:46;;;;;;;7.45;1.82;;;;;;;23.62;70.18;101133.55;1704512;82;20930;-44
2022/07/30 05:13:13;;;;;;;16.60;3.08;;;;;;;23.71;69.65;101126.38;1721746;82;21008;-44
2022/07/30 05:15:43;;;;;;;10.23;2.95;;;;;;;23.76;68.73;101124.28;1719828;82;20977;-44
2022/07/30 05:18:12;;;;;;;9.53;2.30;;;;;;;23.82;68.28;101127.84;1721733;82;20992;-44
2022/07/30 05:20:42;;;;;;;5.30;1.80;;;;;;;23.89;68.57;101128.80;1704225;82;21350;-44
2022/07/30 05:23:13;;;;;;;7.97;1.82;;;;;;;23.98;67.16;101122.91;1718164;82;21479;-44
2022/07/30 05:25:42;;;;;;;7.50;2.05;;;;;;;24.09;67.66;101127.03;1719694;82;21043;-44
2022/07/30 05:28:17;;;;;;;4.55;2.37;;;;;;;24.21;66.59;101124.55;1719553;82;20972;-44
2022/07/30 05:30:44;;;;;;;4.47;1.82;;;;;;;24.39;65.82;101124.66;1719759;81;20952;-44
2022/07/30 05:33:13;;;;;;;5.92;2.10;;;;;;;24.51;65.09;101120.81;1721912;82;21264;-43
2022/07/30 05:35:42;;;;;;;15.05;2.85;;;;;;;24.65;64.77;101123.39;1721098;82;20980;-44
2022/07/30 05:38:09;;;;;;;5.67;1.82;;;;;;;24.81;64.36;101119.71;1718810;82;20988;-44
2022/07/30 05:40:38;;;;;;;6.08;1.85;;;;;;;24.92;63.58;101117.19;1719344;82;20949;-44
2022/07/30 05:43:14;;;;;;;7.15;1.55;;;;;;;25.07;63.40;101124.55;1666902;82;21557;-43
2022/07/30 05:45:42;;;;;;;5.17;1.90;;;;;;;25.15;62.90;101130.64;1718304;82;21577;-43
2022/07/30 05:48:09;;;;;;;8.55;1.90;;;;;;;25.17;61.33;101128.72;1718531;82;21021;-44
2022/07/30 05:50:36;;;;;;;7.78;1.90;;;;;;;25.15;61.91;101126.66;1700536;82;21079;-44
2022/07/30 05:53:03;;;;;;;14.65;2.30;;;;;;;25.27;62.16;101129.39;1700559;82;21015;-44
2022/07/30 05:55:48;;;;;;;9.23;1.80;;;;;;;25.49;60.91;101130.92;1715299;81;21584;-44
2022/07/30 05:58:21;;;;;;;10.60;2.05;;;;;;;25.63;58.72;101131.72;1737674;81;20931;-44
2022/07/30 06:00:49;;;;;;;8.40;1.70;;;;;;;25.48;58.93;101125.72;1740955;81;20924;-44
2022/07/30 06:03:17;;;;;;;7.08;1.70;;;;;;;25.54;59.94;101130.61;1721118;81;21643;-44
2022/07/30 06:05:52;;;;;;;6.50;1.22;;;;;;;25.71;58.92;101126.73;1710066;81;21048;-44
2022/07/30 06:08:19;;;;;;;5.65;1.82;;;;;;;25.88;56.23;101121.99;1714639;81;21037;-44
2022/07/30 06:10:47;;;;;;;8.10;1.70;;;;;;;25.83;57.29;101121.02;1743403;81;21253;-44
2022/07/30 06:13:13;;;;;;;11.12;1.87;;;;;;;25.88;56.72;101118.87;1741149;81;20995;-44
2022/07/30 06:15:43;;;;;;;6.62;1.50;;;;;;;25.94;56.32;101122.89;1741119;81;21018;-44
2022/07/30 06:18:11;;;;;;;6.15;1.77;;;;;;;26.02;57.82;101117.00;1743201;81;20955;-44
2022/07/30 06:20:40;;;;;;;5.55;1.90;;;;;;;26.05;57.42;101121.61;1740935;81;20959;-44
2022/07/30 06:23:12;;;;;;;11.00;2.10;;;;;;;25.95;56.12;101126.74;1741525;81;21148;-44
2022/07/30 06:25:44;;;;;;;10.72;1.85;;;;;;;25.84;56.50;101128.02;1739518;81;20995;-45
2022/07/30 06:28:11;;;;;;;10.85;1.80;;;;;;;25.83;56.40;101126.33;1740056;81;20948;-44
2022/07/30 06:30:39;;;;;;;11.15;1.87;;;;;;;25.69;57.08;101124.68;1741787;81;21022;-44
2022/07/30 06:33:06;;;;;;;10.25;2.40;;;;;;;25.73;56.74;101122.17;1739462;81;20927;-43
2022/07/30 06:35:34;;;;;;;6.22;2.27;;;;;;;25.80;54.21;101117.27;1741763;81;21383;-44
2022/07/30 06:38:03;;;;;;;8.60;2.22;;;;;;;25.94;53.46;101121.56;1743368;81;21561;-44
2022/07/30 06:40:33;;;;;;;8.23;1.75;;;;;;;26.04;54.70;101120.41;1742716;81;21015;-44
2022/07/30 06:43:02;;;;;;;6.00;2.20;;;;;;;26.20;53.51;101120.15;1737031;81;20976;-44
2022/07/30 06:45:38;;;;;;;4.85;2.00;;;;;;;26.33;51.96;101122.73;1735877;81;20968;-43
2022/07/30 06:48:08;;;;;;;7.58;2.00;;;;;;;26.35;51.71;101117.66;1721002;81;20947;-43
2022/07/30 06:50:36;;;;;;;19.12;7.80;;;;;;;26.33;51.30;101118.75;1740222;81;21030;-43
2022/07/30 06:53:05;;;;;;;6.00;2.27;;;;;;;26.33;50.10;101114.27;1740241;81;20979;-43
2022/07/30 06:55:33;;;;;;;10.63;2.15;;;;;;;26.31;50.92;101114.87;1729937;81;20972;-43
2022/07/30 06:58:03;;;;;;;9.93;1.87;;;;;;;26.14;51.83;101113.92;1726115;82;21541;-43
2022/07/30 07:00:50;;;;;;;6.83;1.77;;;;;;;26.03;51.52;101114.74;1701594;83;21519;-43
2022/07/30 07:03:19;;;;;;;14.75;2.27;;;;;;;26.00;52.77;101110.50;1704763;83;21526;-44
2022/07/30 07:05:47;;;;;;;4.65;1.80;;;;;;;25.89;54.44;101107.78;1703581;82;20928;-44
2022/07/30 07:08:14;;;;;;;10.93;1.82;;;;;;;25.72;54.38;101112.53;1730737;82;21054;-43
2022/07/30 07:10:44;;;;;;;6.25;1.70;;;;;;;25.60;54.60;101110.75;1733632;82;21561;-43
2022/07/30 07:13:15;;;;;;;7.72;1.62;;;;;;;25.53;56.11;101109.87;1695273;83;20952;-43
2022/07/30 07:15:43;;;;;;;6.45;1.87;;;;;;;25.46;54.66;101105.94;1706571;82;20980;-44
2022/07/30 07:18:14;;;;;;;10.78;2.30;;;;;;;25.54;53.98;101108.91;1731615;81;21015;-43
2022/07/30 07:20:45;;;;;;;6.15;1.42;;;;;;;25.60;51.80;101107.63;1730965;82;21042;-43
2022/07/30 07:23:11;;;;;;;6.97;2.27;;;;;;;25.80;53.41;101102.20;1731406;82;20944;-43
2022/07/30 07:25:40;;;;;;;11.90;1.72;;;;;;;26.06;54.03;101101.25;1695731;83;21234;-44
2022/07/30 07:28:09;;;;;;;11.63;1.80;;;;;;;26.31;54.02;101100.28;1734259;82;20932;-43
2022/07/30 07:30:37;;;;;;;5.25;1.67;;;;;;;26.57;51.46;101104.09;1727827;82;20983;-43
2022/07/30 07:33:04;;;;;;;10.23;1.90;;;;;;;26.72;50.14;101105.22;1733102;82;20917;-44
2022/07/30 07:35:33;;;;;;;2.30;1.82;;;;;;;26.84;49.49;101097.61;1735133;81;20897;-44
2022/07/30 07:38:01;;;;;;;7.20;1.95;;;;;;;26.85;49.90;101096.68;1733856;82;21081;-44
2022/07/30 07:40:29;;;;;;;2.10;1.50;;;;;;;26.94;48.96;101099.97;1694583;83;21101;-43
2022/07/30 07:42:56;;;;;;;4.17;1.35;;;;;;;27.12;48.06;101095.48;1734570;81;20960;-44
2022/07/30 07:45:25;;;;;;;15.38;2.65;;;;;;;27.27;48.19;101094.74;1734912;82;21501;-43
2022/07/30 07:47:54;;;;;;;5.28;1.50;;;;;;;27.45;45.08;101087.14;1696095;83;21642;-44
2022/07/30 07:50:26;;;;;;;7.20;1.62;;;;;;;27.60;42.87;101088.20;1732735;82;21165;-44
2022/07/30 07:52:53;;;;;;;2.67;1.32;;;;;;;27.73;43.55;101090.23;1734624;81;21085;-43
2022/07/30 07:55:20;;;;;;;4.05;1.37;;;;;;;27.92;42.39;101088.23;1733866;81;21023;-44
2022/07/30 07:57:47;;;;;;;4.00;1.20;;;;;;;27.94;41.63;101089.45;1732448;82;21522;-44
2022/07/30 08:00:19;;;;;;;2.22;1.30;;;;;;;27.89;41.57;101083.17;1733482;82;21018;-44
2022/07/30 08:02:47;;;;;;;4.80;1.50;;;;;;;27.87;40.79;101081.13;1730213;82;20961;-43
2022/07/30 08:05:14;;;;;;;14.55;1.77;;;;;;;27.94;43.34;101086.80;1730914;82;20995;-44
2022/07/30 08:07:56;;;;;;;6.78;1.50;;;;;;;28.18;43.31;101084.42;1697504;82;20952;-44
2022/07/30 08:10:28;;;;;;;7.35;1.60;;;;;;;28.38;40.92;101080.07;1691633;83;20935;-44
2022/07/30 08:13:05;;;;;;;5.95;1.80;;;;;;;28.38;41.86;101075.58;1729595;82;21581;-44
2022/07/30 08:15:37;;;;;;;7.80;5.33;;;;;;;28.46;41.34;101082.09;1729037;82;21852;-44
2022/07/30 08:18:15;;;;;;;5.60;3.02;;;;;;;28.56;40.87;101084.81;1691620;82;21011;-44
2022/07/30 08:20:45;;;;;;;5.90;1.98;;;;;;;28.59;40.23;101076.56;1733194;82;21502;-44
2022/07/30 08:23:13;;;;;;;14.15;1.67;;;;;;;28.56;39.83;101084.31;1730046;82;21461;-44
2022/07/30 08:25:40;;;;;;;4.05;1.55;;;;;;;28.62;39.81;101078.45;1732685;82;20967;-44
2022/07/30 08:28:09;;;;;;;5.05;1.20;;;;;;;28.69;41.53;101074.78;1735373;82;21529;-44
2022/07/30 08:30:37;;;;;;;2.60;1.10;;;;;;;28.89;39.85;101079.73;1733167;82;21030;-44
2022/07/30 08:33:04;;;;;;;3.02;1.32;;;;;;;28.92;39.09;101076.80;1709552;82;21025;-44
2022/07/30 08:35:32;;;;;;;4.47;1.60;;;;;;;28.95;40.11;101073.04;1733796;81;21027;-44
2022/07/30 08:37:59;;;;;;;3.02;1.30;;;;;;;29.19;40.94;101077.19;1734046;82;21011;-44
2022/07/30 08:40:27;;;;;;;5.53;1.25;;;;;;;29.37;38.42;101076.04;1731769;82;21249;-44
2022/07/30 08:42:55;;;;;;;5.17;1.60;;;;;;;29.27;38.98;101079.19;1732018;82;20929;-44
2022/07/30 08:45:24;;;;;;;7.83;1.62;;;;;;;29.27;39.43;101080.02;1734617;82;21020;-44
2022/07/30 08:47:52;;;;;;;3.80;1.90;;;;;;;29.37;39.14;101074.23;1732499;82;20936;-44
2022/07/30 08:50:23;;;;;;;2.22;1.32;;;;;;;29.58;39.69;101075.13;1733126;82;21418;-44
2022/07/30 08:52:55;;;;;;;7.33;1.60;;;;;;;29.65;39.24;101072.26;1695460;82;21453;-44
2022/07/30 08:55:24;;;;;;;9.53;1.77;;;;;;;29.69;38.37;101065.69;1732906;82;20984;-45
2022/07/30 08:57:52;;;;;;;6.90;1.40;;;;;;;29.81;37.85;101057.89;1735561;82;21446;-44
2022/07/30 09:00:20;;;;;;;5.62;1.70;;;;;;;29.88;39.23;101054.66;1734055;82;21000;-44
2022/07/30 09:02:49;;;;;;;13.83;2.10;;;;;;;30.07;40.65;101059.19;1732615;82;21600;-44
2022/07/30 09:05:18;;;;;;;11.80;1.50;;;;;;;30.25;36.63;101054.78;1732021;82;21478;-45
2022/07/30 09:07:45;;;;;;;4.62;1.60;;;;;;;30.13;37.09;101055.09;1694719;83;21533;-43
2022/07/30 09:10:16;;;;;;;5.05;1.67;;;;;;;30.13;38.79;101050.61;1697395;83;21033;-44
2022/07/30 09:12:45;;;;;;;3.60;2.00;;;;;;;30.13;37.84;101052.42;1707909;82;20953;-43
2022/07/30 09:15:15;;;;;;;5.70;2.25;;;;;;;29.86;38.22;101056.63;1733576;82;20952;-44
2022/07/30 09:17:55;;;;;;;6.10;1.70;;;;;;;29.54;39.64;101060.75;1706806;82;22111;-44
2022/07/30 09:20:27;;;;;;;7.12;2.70;;;;;;;29.47;38.12;101054.30;1733727;82;21003;-43
2022/07/30 09:22:58;;;;;;;5.17;1.80;;;;;;;29.61;39.27;101058.86;1735561;82;20944;-44
2022/07/30 09:25:45;;;;;;;2.40;1.70;;;;;;;29.78;38.48;101051.50;1733847;82;20971;-44
2022/07/30 09:28:32;;;;;;;4.50;1.35;;;;;;;29.99;38.72;101049.66;1735676;82;21007;-44
2022/07/30 09:31:16;;;;;;;4.87;3.10;;;;;;;30.06;37.12;101047.66;1732868;81;21648;-45
2022/07/30 09:34:02;;;;;;;5.28;4.78;;;;;;;30.10;36.54;101038.89;1733708;82;20956;-44
2022/07/30 09:36:47;;;;;;;5.20;1.52;;;;;;;30.05;37.36;101045.98;1735588;82;20999;-44
2022/07/30 09:39:38;;;;;;;3.60;2.77;;;;;;;29.70;37.86;101043.37;1697743;83;20955;-45
2022/07/30 09:42:25;;;;;;;7.72;2.30;;;;;;;29.63;40.42;101044.89;1731378;82;20939;-44
2022/07/30 09:45:12;;;;;;;8.78;2.08;;;;;;;29.73;38.52;101040.90;1732735;82;21003;-44
2022/07/30 09:47:43;;;;;;;3.47;1.82;;;;;;;29.71;39.55;101037.05;1733829;82;21015;-44
2022/07/30 09:50:14;;;;;;;7.85;2.02;;;;;;;29.71;39.90;101040.20;1695132;83;21035;-44
2022/07/30 09:52:43;;;;;;;5.35;4.00;;;;;;;29.81;39.21;101044.55;1734598;81;21007;-44
2022/07/30 09:55:11;;;;;;;4.35;3.95;;;;;;;29.82;39.11;101042.23;1694965;83;21014;-44
2022/07/30 09:57:57;;;;;;;3.60;1.98;;;;;;;29.91;39.91;101039.22;1706914;82;21337;-44
2022/07/30 10:00:27;;;;;;;4.78;2.00;;;;;;;30.25;39.23;101036.11;1678484;84;20967;-44
2022/07/30 10:03:24;;;;;;;4.10;1.82;;;;;;;30.53;37.56;101037.50;1704085;83;20970;-44
2022/07/30 10:06:10;;;;;;;9.03;2.20;;;;;;;30.32;36.79;101035.05;1688130;84;21109;-44
2022/07/30 10:08:49;;;;;;;12.88;1.45;;;;;;;30.30;37.24;101034.34;1685538;83;21030;-44
2022/07/30 10:11:21;;;;;;;2.75;1.47;;;;;;;30.27;36.70;101034.64;1678310;84;21005;-43
2022/07/30 10:13:56;;;;;;;10.75;5.03;;;;;;;29.87;38.90;101032.97;1704691;83;20963;-43
2022/07/30 10:16:26;;;;;;;8.10;2.52;;;;;;;29.87;38.38;101042.30;1675397;84;21478;-43
2022/07/30 10:18:58;;;;;;;4.90;1.75;;;;;;;29.78;38.27;101035.98;1705205;83;20975;-43
2022/07/30 10:21:44;;;;;;;8.30;1.50;;;;;;;29.82;39.34;101037.41;1677755;84;21047;-43
2022/07/30 10:24:17;;;;;;;4.53;1.30;;;;;;;30.12;37.39;101035.58;1671003;85;21623;-43
2022/07/30 10:26:53;;;;;;;2.20;1.50;;;;;;;30.38;36.50;101030.96;1686628;84;20933;-43
2022/07/30 10:29:29;;;;;;;1.90;1.45;;;;;;;30.58;37.32;101034.91;1703262;83;20939;-43
2022/07/30 10:31:57;;;;;;;1.95;1.80;;;;;;;30.74;36.98;101032.47;1685082;83;21516;-44
2022/07/30 10:34:26;;;;;;;4.17;1.70;;;;;;;30.42;37.00;101035.02;1669503;83;21021;-44
2022/07/30 10:36:58;;;;;;;3.42;1.67;;;;;;;30.15;37.29;101026.43;1704873;83;21014;-44
2022/07/30 10:39:43;;;;;;;13.28;8.48;;;;;;;30.06;38.28;101019.64;1705691;83;21007;-43
2022/07/30 10:42:39;;;;;;;7.53;4.50;;;;;;;29.97;39.01;101029.31;1679868;84;21603;-44
2022/07/30 10:45:39;;;;;;;16.07;6.42;;;;;;;29.63;39.43;101020.41;1678054;84;21050;-44
2022/07/30 10:48:06;;;;;;;4.75;3.02;;;;;;;29.60;38.77;101031.84;1703296;83;20993;-44
2022/07/30 10:50:33;;;;;;;12.73;6.40;;;;;;;29.80;38.14;101022.00;1704314;83;21881;-44
2022/07/30 10:53:00;;;;;;;5.62;2.42;;;;;;;30.02;37.33;101017.39;1660143;83;21015;-44
2022/07/30 10:55:34;;;;;;;3.52;1.60;;;;;;;30.38;38.34;101014.44;1710070;83;21512;-44
2022/07/30 10:58:12;;;;;;;3.58;1.60;;;;;;;30.71;36.76;101017.25;1676037;84;21003;-44
2022/07/30 11:00:51;;;;;;;3.10;1.30;;;;;;;30.79;36.91;101012.00;1676966;84;21627;-44
2022/07/30 11:03:25;;;;;;;2.30;1.52;;;;;;;30.79;37.48;101010.67;1672257;84;20925;-44
2022/07/30 11:06:17;;;;;;;8.33;2.00;;;;;;;30.79;35.85;101013.34;1706441;83;21817;-44
2022/07/30 11:08:44;;;;;;;4.92;2.92;;;;;;;30.92;35.80;101008.48;1679699;84;21026;-43
2022/07/30 11:11:29;;;;;;;3.98;2.05;;;;;;;31.01;35.77;101004.07;1675949;84;20999;-44
2022/07/30 11:14:01;;;;;;;3.67;1.67;;;;;;;31.30;36.05;101001.73;1678931;84;21544;-44
2022/07/30 11:16:37;;;;;;;2.80;1.82;;;;;;;31.62;34.42;100993.69;1676998;84;21001;-44
2022/07/30 11:19:16;;;;;;;4.17;1.55;;;;;;;31.89;34.66;100993.75;1675270;84;22165;-44
2022/07/30 11:21:41;;;;;;;4.50;2.05;;;;;;;32.05;34.93;100995.22;1692796;84;21150;-44
2022/07/30 11:24:45;;;;;;;4.25;2.00;;;;;;;32.13;33.58;100992.24;1686689;84;21518;-45
2022/07/30 11:27:47;;;;;;;3.87;2.10;;;;;;;31.93;33.74;100992.44;1707780;83;20963;-44
2022/07/30 11:30:30;;;;;;;10.68;2.40;;;;;;;31.59;33.39;100989.14;1675232;85;21548;-44
2022/07/30 11:33:06;;;;;;;2.40;1.90;;;;;;;31.13;35.11;100991.34;1688541;84;21007;-44
2022/07/30 11:35:34;;;;;;;2.90;1.72;;;;;;;31.21;35.12;100997.30;1676342;84;20959;-44
2022/07/30 11:38:14;;;;;;;5.00;1.98;;;;;;;31.31;33.08;100987.88;1676731;83;20951;-44
2022/07/30 11:40:53;;;;;;;1.80;1.50;;;;;;;31.39;35.16;100995.97;1677411;84;21558;-44